createdAt,value
2019-03-30T00:01:41.137Z,102217.13
2019-03-30T00:04:12.872Z,102207.81
2019-03-30T00:06:44.616Z,102208.91
2019-03-30T00:09:18.350Z,102211.81
2019-03-30T00:11:50.399Z,102205.03
2019-03-30T00:14:22.203Z,102206.09
2019-03-30T00:16:53.894Z,102205.05
2019-03-30T00:19:34.707Z,102200.89
2019-03-30T00:21:59.104Z,102200.78
2019-03-30T00:24:30.837Z,102197.91
2019-03-30T00:27:02.586Z,102201.23
2019-03-30T00:29:34.510Z,102198.36
2019-03-30T00:32:06.196Z,102203.92
2019-03-30T00:34:37.941Z,102198.95
2019-03-30T00:37:09.704Z,102194.86
2019-03-30T00:39:41.785Z,102191.23
2019-03-30T00:42:13.550Z,102187.47
2019-03-30T00:44:45.273Z,102181.67
2019-03-30T00:47:16.988Z,102183.27
2019-03-30T00:49:50.130Z,102183.44
2019-03-30T00:52:22.075Z,102177.53
2019-03-30T00:54:53.841Z,102181.26
2019-03-30T00:57:25.541Z,102178.13
2019-03-30T00:59:57.331Z,102179.72
2019-03-30T01:02:29.157Z,102171.59
2019-03-30T01:05:00.910Z,102167.95
2019-03-30T01:07:32.697Z,102165.08
2019-03-30T01:10:04.633Z,102161.02
2019-03-30T01:12:36.369Z,102161.69
2019-03-30T01:15:08.433Z,102158.45
2019-03-30T01:17:40.301Z,102156.88
2019-03-30T01:20:12.153Z,102150.63
2019-03-30T01:22:43.907Z,102150.06
2019-03-30T01:25:15.594Z,102150.23
2019-03-30T01:27:47.363Z,102145.25
2019-03-30T01:30:23.296Z,102148.16
2019-03-30T01:32:52.878Z,102144.50
2019-03-30T01:35:24.787Z,102138.63
2019-03-30T01:37:56.670Z,102142.31
2019-03-30T01:40:28.361Z,102138.14
2019-03-30T01:43:00.066Z,102138.42
2019-03-30T01:45:31.794Z,102134.27
2019-03-30T01:48:03.537Z,102137.16
2019-03-30T01:50:35.401Z,102136.52
2019-03-30T01:53:07.100Z,102138.10
2019-03-30T01:55:38.781Z,102137.59
2019-03-30T01:58:10.490Z,102136.56
2019-03-30T02:00:42.221Z,102139.84
2019-03-30T02:03:13.918Z,102130.55
2019-03-30T02:05:45.714Z,102131.36
2019-03-30T02:08:17.446Z,102123.66
2019-03-30T02:10:49.293Z,102118.68
2019-03-30T02:13:21.037Z,102108.95
2019-03-30T02:15:52.775Z,102107.53
2019-03-30T02:18:24.590Z,102110.44
2019-03-30T02:20:56.317Z,102106.38
2019-03-30T02:23:28.068Z,102107.05
2019-03-30T02:25:59.767Z,102113.10
2019-03-30T02:28:31.553Z,102101.58
2019-03-30T02:31:03.275Z,102107.09
2019-03-30T02:33:34.982Z,102107.91
2019-03-30T02:36:06.723Z,102108.06
2019-03-30T02:38:38.475Z,102109.77
2019-03-30T02:41:10.162Z,102107.91
2019-03-30T02:43:41.942Z,102093.27
2019-03-30T02:46:13.743Z,102086.09
2019-03-30T02:48:45.475Z,102090.80
2019-03-30T02:51:17.218Z,102096.70
2019-03-30T02:53:49.969Z,102099.62
2019-03-30T02:56:21.775Z,102098.05
2019-03-30T02:58:53.501Z,102095.70
2019-03-30T03:01:26.847Z,102098.59
2019-03-30T03:03:58.576Z,102093.66
2019-03-30T03:06:30.273Z,102090.89
2019-03-30T03:09:02.050Z,102086.34
2019-03-30T03:11:35.136Z,102088.84
2019-03-30T03:14:06.849Z,102083.45
2019-03-30T03:16:38.554Z,102082.84
2019-03-30T03:19:10.325Z,102076.17
2019-03-30T03:21:43.108Z,102069.73
2019-03-30T03:24:15.912Z,102073.55
2019-03-30T03:26:47.661Z,102073.44
2019-03-30T03:29:19.586Z,102070.20
2019-03-30T03:31:51.316Z,102072.16
2019-03-30T03:34:23.016Z,102069.70
2019-03-30T03:36:55.698Z,102066.42
2019-03-30T03:39:27.407Z,102063.19
2019-03-30T03:41:59.097Z,102059.91
2019-03-30T03:44:30.805Z,102063.61
2019-03-30T03:47:02.590Z,102056.41
2019-03-30T03:49:35.388Z,102049.73
2019-03-30T03:52:07.369Z,102052.62
2019-03-30T03:54:39.053Z,102052.78
2019-03-30T03:57:12.314Z,102051.73
2019-03-30T03:59:44.051Z,102050.69
2019-03-30T04:02:16.101Z,102051.34
2019-03-30T04:04:49.817Z,102050.34
2019-03-30T04:07:23.038Z,102050.19
2019-03-30T04:09:56.396Z,102049.57
2019-03-30T04:12:30.588Z,102049.84
2019-03-30T04:15:02.332Z,102054.95
2019-03-30T04:17:34.150Z,102049.98
2019-03-30T04:20:06.852Z,102053.80
2019-03-30T04:22:38.648Z,102043.97
2019-03-30T04:25:10.466Z,102044.63
2019-03-30T04:27:42.195Z,102045.31
2019-03-30T04:30:14.063Z,102052.52
2019-03-30T04:32:45.953Z,102047.55
2019-03-30T04:35:17.661Z,102047.31
2019-03-30T04:37:49.467Z,102044.41
2019-03-30T04:40:21.223Z,102041.94
2019-03-30T04:42:53.001Z,102047.86
2019-03-30T04:45:24.758Z,102044.59
2019-03-30T04:47:56.494Z,102042.50
2019-03-30T04:50:28.289Z,102044.61
2019-03-30T04:53:00.092Z,102038.22
2019-03-30T04:55:31.893Z,102040.14
2019-03-30T04:58:03.658Z,102040.82
2019-03-30T05:00:35.471Z,102036.63
2019-03-30T05:03:07.325Z,102027.09
2019-03-30T05:05:42.783Z,102024.75
2019-03-30T05:08:12.777Z,102024.89
2019-03-30T05:10:44.562Z,102022.92
2019-03-30T05:13:16.287Z,102018.75
2019-03-30T05:15:47.994Z,102014.70
2019-03-30T05:18:19.693Z,102011.94
2019-03-30T05:20:51.440Z,102011.43
2019-03-30T05:23:23.344Z,102004.77
2019-03-30T05:25:55.069Z,102006.84
2019-03-30T05:28:26.754Z,102001.88
2019-03-30T05:30:58.562Z,102001.88
2019-03-30T05:33:30.336Z,101994.33
2019-03-30T05:36:02.006Z,101999.94
2019-03-30T05:38:33.744Z,101998.64
2019-03-30T05:41:05.768Z,101995.09
2019-03-30T05:43:37.415Z,101992.86
2019-03-30T05:46:09.194Z,101985.44
2019-03-30T05:48:40.884Z,101985.44
2019-03-30T05:51:12.602Z,101984.89
2019-03-30T05:53:44.304Z,101988.05
2019-03-30T05:56:16.126Z,101985.31
2019-03-30T05:58:47.808Z,101990.13
2019-03-30T06:01:19.555Z,101989.74
2019-03-30T06:03:51.311Z,101991.55
2019-03-30T06:06:23.041Z,101988.44
2019-03-30T06:08:54.782Z,101988.55
2019-03-30T06:11:26.685Z,101986.98
2019-03-30T06:13:58.381Z,101983.56
2019-03-30T06:16:30.130Z,101982.41
2019-03-30T06:19:01.842Z,101980.84
2019-03-30T06:21:33.546Z,101984.46
2019-03-30T06:24:05.444Z,101983.43
2019-03-30T06:26:38.111Z,101983.67
2019-03-30T06:29:09.924Z,101984.95
2019-03-30T06:31:41.733Z,101986.53
2019-03-30T06:34:13.506Z,101983.39
2019-03-30T06:36:46.520Z,101982.70
2019-03-30T06:39:18.426Z,101984.41
2019-03-30T06:41:50.369Z,101985.17
2019-03-30T06:44:22.166Z,101979.83
2019-03-30T06:46:54.044Z,101982.30
2019-03-30T06:49:25.923Z,101979.11
2019-03-30T06:51:57.762Z,101980.42
2019-03-30T06:54:29.732Z,101978.53
2019-03-30T06:57:01.638Z,101985.08
2019-03-30T06:59:33.508Z,101985.97
2019-03-30T07:02:05.311Z,101985.40
2019-03-30T07:04:37.453Z,101991.41
2019-03-30T07:07:12.424Z,101985.74
2019-03-30T07:09:46.482Z,101981.39
2019-03-30T07:12:21.284Z,101980.95
2019-03-30T07:14:54.579Z,101978.30
2019-03-30T07:17:26.315Z,101984.30
2019-03-30T07:19:59.739Z,101978.75
2019-03-30T07:22:31.504Z,101981.86
2019-03-30T07:25:04.431Z,101976.68
2019-03-30T07:27:36.202Z,101979.67
2019-03-30T07:30:09.842Z,101978.04
2019-03-30T07:32:41.605Z,101977.99
2019-03-30T07:35:13.346Z,101979.01
2019-03-30T07:37:45.105Z,101980.77
2019-03-30T07:40:16.809Z,101985.68
2019-03-30T07:42:48.574Z,101981.95
2019-03-30T07:45:20.500Z,101978.20
2019-03-30T07:47:52.525Z,101977.44
2019-03-30T07:50:24.216Z,101974.62
2019-03-30T07:52:55.927Z,101970.98
2019-03-30T07:55:27.695Z,101958.83
2019-03-30T07:57:59.598Z,101968.80
2019-03-30T08:00:31.466Z,101966.99
2019-03-30T08:03:03.238Z,101960.31
2019-03-30T08:05:35.116Z,101963.72
2019-03-30T08:08:06.888Z,101960.16
2019-03-30T08:10:38.660Z,101962.63
2019-03-30T08:13:10.403Z,101953.01
2019-03-30T08:15:42.182Z,101957.31
2019-03-30T08:18:13.996Z,101957.96
2019-03-30T08:20:45.805Z,101953.94
2019-03-30T08:23:17.648Z,101955.50
2019-03-30T08:25:49.420Z,101954.43
2019-03-30T08:28:21.200Z,101954.34
2019-03-30T08:30:52.981Z,101946.68
2019-03-30T08:33:24.694Z,101951.34
2019-03-30T08:35:56.500Z,101950.92
2019-03-30T08:38:29.346Z,101950.94
2019-03-30T08:41:01.134Z,101938.51
2019-03-30T08:43:32.872Z,101938.84
2019-03-30T08:46:04.878Z,101929.92
2019-03-30T08:48:36.662Z,101929.70
2019-03-30T08:51:08.529Z,101926.62
2019-03-30T08:53:53.725Z,101919.39
2019-03-30T08:56:14.035Z,101917.83
2019-03-30T08:58:45.835Z,101913.95
2019-03-30T09:01:17.775Z,101905.55
2019-03-30T09:03:49.638Z,101908.70
2019-03-30T09:06:21.600Z,101906.48
2019-03-30T09:08:53.554Z,101910.06
2019-03-30T09:11:25.407Z,101904.22
2019-03-30T09:13:57.307Z,101901.64
2019-03-30T09:16:29.160Z,101894.53
2019-03-30T09:19:01.016Z,101889.42
2019-03-30T09:21:32.790Z,101897.60
2019-03-30T09:24:10.053Z,101896.73
2019-03-30T09:26:39.075Z,101888.95
2019-03-30T09:29:10.897Z,101888.06
2019-03-30T09:31:42.830Z,101881.28
2019-03-30T09:34:14.610Z,101877.80
2019-03-30T09:36:46.428Z,101870.26
2019-03-30T09:39:18.391Z,101871.50
2019-03-30T09:41:50.205Z,101853.91
2019-03-30T09:44:22.045Z,101852.86
2019-03-30T09:46:53.888Z,101847.45
2019-03-30T09:49:25.669Z,101839.77
2019-03-30T09:51:57.586Z,101839.48
2019-03-30T09:54:29.469Z,101836.59
2019-03-30T09:57:01.389Z,101838.61
2019-03-30T09:59:33.307Z,101838.33
2019-03-30T10:02:05.176Z,101828.45
2019-03-30T10:04:37.069Z,101827.95
2019-03-30T10:07:08.906Z,101826.95
2019-03-30T10:09:40.722Z,101819.19
2019-03-30T10:12:12.479Z,101826.52
2019-03-30T10:14:44.257Z,101811.90
2019-03-30T10:17:16.024Z,101816.66
2019-03-30T10:19:57.990Z,101813.70
2019-03-30T10:22:21.576Z,101808.89
2019-03-30T10:24:53.329Z,101800.92
2019-03-30T10:27:25.307Z,101803.22
2019-03-30T10:29:57.028Z,101799.84
2019-03-30T10:32:28.816Z,101798.64
2019-03-30T10:35:00.578Z,101805.28
2019-03-30T10:37:33.606Z,101798.28
2019-03-30T10:40:05.966Z,101796.14
2019-03-30T10:42:37.785Z,101790.56
2019-03-30T10:45:09.783Z,101796.55
2019-03-30T10:47:41.643Z,101784.28
2019-03-30T10:50:13.513Z,101777.33
2019-03-30T10:52:45.322Z,101781.02
2019-03-30T10:55:17.087Z,101780.66
2019-03-30T10:57:48.882Z,101771.46
2019-03-30T11:00:40.369Z,101771.52
2019-03-30T11:03:12.137Z,101762.27
2019-03-30T11:05:43.976Z,101772.68
2019-03-30T11:08:15.778Z,101763.53
2019-03-30T11:10:47.687Z,101752.28
2019-03-30T11:13:19.787Z,101747.67
2019-03-30T11:15:52.687Z,101746.52
2019-03-30T11:18:24.452Z,101749.84
2019-03-30T11:20:56.287Z,101746.45
2019-03-30T11:23:28.053Z,101742.23
2019-03-30T11:25:59.954Z,101748.20
2019-03-30T11:28:31.751Z,101733.25
2019-03-30T11:31:05.421Z,101731.24
2019-03-30T11:33:36.966Z,101723.95
2019-03-30T11:36:08.770Z,101725.93
2019-03-30T11:38:40.526Z,101722.53
2019-03-30T11:41:12.460Z,101712.72
2019-03-30T11:43:44.225Z,101708.35
2019-03-30T11:46:15.983Z,101711.19
2019-03-30T11:48:47.839Z,101703.72
2019-03-30T11:51:19.621Z,101696.45
2019-03-30T11:53:51.390Z,101695.47
2019-03-30T11:56:23.174Z,101683.84
2019-03-30T11:58:54.953Z,101665.66
2019-03-30T12:01:26.835Z,101678.16
2019-03-30T12:03:58.561Z,101673.90
2019-03-30T12:06:30.384Z,101674.11
2019-03-30T12:09:02.456Z,101681.94
2019-03-30T12:11:34.215Z,101657.14
2019-03-30T12:14:05.968Z,101664.55
2019-03-30T12:16:37.777Z,101658.99
2019-03-30T12:19:09.597Z,101652.21
2019-03-30T12:21:41.422Z,101642.92
2019-03-30T12:24:13.283Z,101639.15
2019-03-30T12:26:45.018Z,101634.23
2019-03-30T12:29:16.796Z,101624.85
2019-03-30T12:31:48.625Z,101628.02
2019-03-30T12:34:20.377Z,101634.67
2019-03-30T12:36:52.107Z,101624.80
2019-03-30T12:39:23.808Z,101618.13
2019-03-30T12:41:55.538Z,101623.61
2019-03-30T12:44:27.249Z,101604.59
2019-03-30T12:46:59.062Z,101612.39
2019-03-30T12:49:30.751Z,101619.14
2019-03-30T12:52:02.445Z,101619.33
2019-03-30T12:54:34.199Z,101609.92
2019-03-30T12:57:05.968Z,101597.30
2019-03-30T12:59:37.706Z,101596.36
2019-03-30T13:02:09.606Z,101579.46
2019-03-30T13:04:41.327Z,101578.00
2019-03-30T13:07:13.062Z,101558.72
2019-03-30T13:09:44.804Z,101561.28
2019-03-30T13:12:16.622Z,101566.50
2019-03-30T13:14:48.369Z,101548.79
2019-03-30T13:17:20.245Z,101547.06
2019-03-30T13:19:52.011Z,101548.09
2019-03-30T13:22:23.820Z,101546.33
2019-03-30T13:24:55.631Z,101545.44
2019-03-30T13:27:27.463Z,101533.40
2019-03-30T13:29:59.283Z,101531.68
2019-03-30T13:32:31.020Z,101532.27
2019-03-30T13:35:02.733Z,101527.38
2019-03-30T13:37:34.519Z,101529.02
2019-03-30T13:40:06.819Z,101523.78
2019-03-30T13:42:38.556Z,101523.61
2019-03-30T13:45:10.544Z,101526.09
2019-03-30T13:47:42.343Z,101524.33
2019-03-30T13:50:14.155Z,101512.44
2019-03-30T13:52:45.996Z,101500.02
2019-03-30T13:55:17.708Z,101501.91
2019-03-30T13:57:49.536Z,101503.86
2019-03-30T14:00:21.260Z,101508.99
2019-03-30T14:02:53.096Z,101496.80
2019-03-30T14:05:24.810Z,101492.20
2019-03-30T14:07:57.834Z,101485.92
2019-03-30T14:10:29.606Z,101486.65
2019-03-30T14:13:01.438Z,101492.56
2019-03-30T14:15:33.367Z,101482.89
2019-03-30T14:18:05.118Z,101483.55
2019-03-30T14:20:36.840Z,101475.66
2019-03-30T14:23:08.738Z,101482.87
2019-03-30T14:25:40.533Z,101477.33
2019-03-30T14:28:12.268Z,101481.45
2019-03-30T14:30:44.039Z,101473.97
2019-03-30T14:33:15.839Z,101472.12
2019-03-30T14:35:47.622Z,101471.29
2019-03-30T14:38:19.321Z,101461.95
2019-03-30T14:40:51.100Z,101460.94
2019-03-30T14:43:22.845Z,101456.50
2019-03-30T14:45:54.577Z,101452.50
2019-03-30T14:48:26.393Z,101452.69
2019-03-30T14:50:58.062Z,101451.00
2019-03-30T14:53:29.831Z,101445.03
2019-03-30T14:56:01.585Z,101449.28
2019-03-30T14:58:33.331Z,101440.36
2019-03-30T15:01:05.349Z,101445.33
2019-03-30T15:03:37.083Z,101445.88
2019-03-30T15:06:08.799Z,101442.91
2019-03-30T15:08:40.508Z,101444.33
2019-03-30T15:11:12.279Z,101442.31
2019-03-30T15:13:44.013Z,101445.68
2019-03-30T15:16:15.857Z,101435.00
2019-03-30T15:18:47.617Z,101431.46
2019-03-30T15:21:19.370Z,101426.20
2019-03-30T15:23:51.081Z,101424.95
2019-03-30T15:26:23.034Z,101424.58
2019-03-30T15:28:54.850Z,101423.77
2019-03-30T15:31:26.548Z,101418.00
2019-03-30T15:33:58.300Z,101421.20
2019-03-30T15:36:30.113Z,101417.67
2019-03-30T15:39:01.848Z,101417.25
2019-03-30T15:41:35.479Z,101415.98
2019-03-30T15:44:07.475Z,101411.09
2019-03-30T15:46:39.235Z,101412.00
2019-03-30T15:49:11.108Z,101402.98
2019-03-30T15:51:42.857Z,101409.72
2019-03-30T15:54:14.586Z,101401.64
2019-03-30T15:56:46.492Z,101390.45
2019-03-30T15:59:18.229Z,101397.67
2019-03-30T16:01:49.919Z,101393.14
2019-03-30T16:04:21.657Z,101389.52
2019-03-30T16:06:53.400Z,101389.05
2019-03-30T16:09:25.115Z,101390.36
2019-03-30T16:11:56.910Z,101391.28
2019-03-30T16:14:28.670Z,101392.64
2019-03-30T16:17:00.460Z,101395.92
2019-03-30T16:19:32.180Z,101397.78
2019-03-30T16:22:03.964Z,101389.75
2019-03-30T16:24:35.810Z,101382.97
2019-03-30T16:27:07.586Z,101385.24
2019-03-30T16:29:39.334Z,101382.53
2019-03-30T16:32:11.166Z,101376.25
2019-03-30T16:34:43.922Z,101377.55
2019-03-30T16:37:15.611Z,101383.83
2019-03-30T16:39:47.339Z,101379.27
2019-03-30T16:42:19.123Z,101382.78
2019-03-30T16:44:51.030Z,101383.06
2019-03-30T16:47:22.815Z,101381.11
2019-03-30T16:49:54.575Z,101379.63
2019-03-30T16:52:26.390Z,101382.63
2019-03-30T16:54:58.294Z,101375.41
2019-03-30T16:57:42.415Z,101373.52
2019-03-30T17:00:03.603Z,101364.92
2019-03-30T17:02:35.420Z,101365.25
2019-03-30T17:05:07.982Z,101368.68
2019-03-30T17:07:39.694Z,101366.67
2019-03-30T17:10:12.890Z,101370.05
2019-03-30T17:12:44.638Z,101368.94
2019-03-30T17:15:16.426Z,101365.59
2019-03-30T17:17:48.169Z,101363.55
2019-03-30T17:20:20.140Z,101368.69
2019-03-30T17:22:51.960Z,101355.59
2019-03-30T17:25:23.717Z,101360.13
2019-03-30T17:27:58.663Z,101363.33
2019-03-30T17:30:28.999Z,101357.20
2019-03-30T17:33:00.792Z,101356.84
2019-03-30T17:35:33.720Z,101366.80
2019-03-30T17:38:05.628Z,101362.92
2019-03-30T17:40:37.495Z,101371.11
2019-03-30T17:43:09.221Z,101374.86
2019-03-30T17:45:41.052Z,101373.16
2019-03-30T17:48:12.733Z,101370.19
2019-03-30T17:50:44.476Z,101369.45
2019-03-30T17:53:17.108Z,101366.52
2019-03-30T17:55:48.958Z,101371.61
2019-03-30T17:58:21.735Z,101361.97
2019-03-30T18:00:53.471Z,101371.06
2019-03-30T18:03:25.330Z,101370.35
2019-03-30T18:05:57.074Z,101366.52
2019-03-30T18:08:28.934Z,101367.10
2019-03-30T18:11:04.011Z,101372.20
2019-03-30T18:13:36.966Z,101375.51
2019-03-30T18:16:09.759Z,101376.60
2019-03-30T18:18:41.748Z,101372.81
2019-03-30T18:21:13.603Z,101377.05
2019-03-30T18:23:47.535Z,101381.75
2019-03-30T18:26:18.779Z,101379.33
2019-03-30T18:28:50.465Z,101386.27
2019-03-30T18:31:22.343Z,101383.88
2019-03-30T18:33:54.059Z,101387.72
2019-03-30T18:36:27.097Z,101385.78
2019-03-30T18:39:09.468Z,101382.02
2019-03-30T18:41:34.420Z,101387.61
2019-03-30T18:44:06.365Z,101392.33
2019-03-30T18:46:38.161Z,101391.29
2019-03-30T18:49:10.158Z,101394.67
2019-03-30T18:51:43.567Z,101396.27
2019-03-30T18:54:15.568Z,101396.11
2019-03-30T18:56:47.382Z,101399.02
2019-03-30T18:59:19.189Z,101395.82
2019-03-30T19:01:50.996Z,101398.37
2019-03-30T19:04:22.936Z,101402.27
2019-03-30T19:06:54.760Z,101399.95
2019-03-30T19:09:26.649Z,101414.05
2019-03-30T19:11:58.646Z,101409.52
2019-03-30T19:14:30.487Z,101409.35
2019-03-30T19:17:02.254Z,101410.55
2019-03-30T19:19:34.171Z,101417.63
2019-03-30T19:22:05.938Z,101412.17
2019-03-30T19:24:37.865Z,101417.83
2019-03-30T19:27:09.859Z,101415.08
2019-03-30T19:29:41.685Z,101413.17
2019-03-30T19:32:13.491Z,101418.44
2019-03-30T19:34:45.351Z,101416.06
2019-03-30T19:37:17.228Z,101424.79
2019-03-30T19:39:49.062Z,101421.55
2019-03-30T19:42:20.876Z,101428.47
2019-03-30T19:44:55.697Z,101429.21
2019-03-30T19:47:27.666Z,101424.17
2019-03-30T19:49:59.652Z,101421.30
2019-03-30T19:52:39.753Z,101426.42
2019-03-30T19:55:05.534Z,101424.00
2019-03-30T19:57:37.476Z,101433.58
2019-03-30T20:00:10.020Z,101436.45
2019-03-30T20:02:42.260Z,101440.53
2019-03-30T20:05:14.899Z,101438.84
2019-03-30T20:07:47.056Z,101438.51
2019-03-30T20:10:19.234Z,101441.34
2019-03-30T20:12:51.161Z,101439.87
2019-03-30T20:15:23.439Z,101439.31
2019-03-30T20:17:55.330Z,101440.13
2019-03-30T20:23:57.583Z,101455.97
2019-03-30T20:26:29.427Z,101451.73
2019-03-30T20:29:01.745Z,101455.16
2019-03-30T20:31:33.613Z,101456.44
2019-03-30T20:34:05.679Z,101457.63
2019-03-30T20:36:37.604Z,101462.00
2019-03-30T20:39:09.688Z,101455.28
2019-03-30T20:41:41.532Z,101461.39
2019-03-30T20:44:13.365Z,101454.62
2019-03-30T20:46:45.672Z,101457.58
2019-03-30T20:49:17.902Z,101457.47
2019-03-30T20:51:49.885Z,101455.17
2019-03-30T20:54:21.892Z,101455.13
2019-03-30T20:56:53.689Z,101452.83
2019-03-30T20:59:39.084Z,101449.27
2019-03-30T21:01:59.475Z,101453.19
2019-03-30T21:04:31.623Z,101448.24
2019-03-30T21:07:03.641Z,101448.19
2019-03-30T21:09:35.684Z,101449.05
2019-03-30T21:12:07.980Z,101449.05
2019-03-30T21:14:40.523Z,101446.31
2019-03-30T21:17:12.568Z,101438.70
2019-03-30T21:19:44.602Z,101447.06
2019-03-30T21:22:16.562Z,101442.52
2019-03-30T21:24:48.518Z,101436.25
2019-03-30T21:27:20.303Z,101440.59
2019-03-30T21:29:54.901Z,101439.20
2019-03-30T21:32:25.930Z,101440.42
2019-03-30T21:34:58.025Z,101435.89
2019-03-30T21:37:29.901Z,101435.27
2019-03-30T21:40:01.763Z,101436.45
2019-03-30T21:42:33.648Z,101435.43
2019-03-30T21:45:06.260Z,101437.58
2019-03-30T21:47:38.242Z,101441.45
2019-03-30T21:50:10.370Z,101444.41
2019-03-30T21:52:42.163Z,101445.11
2019-03-30T21:55:14.390Z,101446.63
2019-03-30T21:57:48.090Z,101444.06
2019-03-30T22:00:37.590Z,101446.45
2019-03-30T22:03:09.485Z,101447.60
2019-03-30T22:05:41.708Z,101447.33
2019-03-30T22:08:17.014Z,101445.54
2019-03-30T22:10:47.102Z,101448.54
2019-03-30T22:13:21.470Z,101452.81
2019-03-30T22:15:53.859Z,101452.25
2019-03-30T22:18:25.669Z,101450.80
2019-03-30T22:20:57.544Z,101452.48
2019-03-30T22:23:29.393Z,101458.54
2019-03-30T22:26:01.200Z,101452.27
2019-03-30T22:28:33.193Z,101457.85
2019-03-30T22:31:07.053Z,101456.82
2019-03-30T22:33:38.978Z,101462.00
2019-03-30T22:36:10.783Z,101458.78
2019-03-30T22:38:42.848Z,101457.81
2019-03-30T22:41:14.719Z,101460.40
2019-03-30T22:43:46.832Z,101462.52
2019-03-30T22:46:18.646Z,101457.50
2019-03-30T22:48:50.462Z,101460.91
2019-03-30T22:51:23.409Z,101456.72
2019-03-30T22:53:55.490Z,101451.59
2019-03-30T22:56:27.480Z,101458.39
2019-03-30T22:58:59.440Z,101462.14
2019-03-30T23:01:31.260Z,101457.06
2019-03-30T23:04:03.858Z,101459.43
2019-03-30T23:06:35.727Z,101459.65
2019-03-30T23:09:11.251Z,101464.72
2019-03-30T23:11:41.448Z,101466.70
2019-03-30T23:14:13.768Z,101465.14
2019-03-30T23:16:45.630Z,101466.23
2019-03-30T23:19:17.533Z,101462.89
2019-03-30T23:21:49.284Z,101463.55
2019-03-30T23:24:21.144Z,101462.06
2019-03-30T23:26:53.165Z,101461.02
2019-03-30T23:29:25.073Z,101461.35
2019-03-30T23:31:56.915Z,101456.34
2019-03-30T23:34:29.423Z,101458.34
2019-03-30T23:37:01.331Z,101466.14
2019-03-30T23:39:33.273Z,101468.02
2019-03-30T23:42:05.279Z,101470.86
2019-03-30T23:44:37.369Z,101469.23
2019-03-30T23:47:09.359Z,101467.13
2019-03-30T23:49:41.409Z,101469.97
2019-03-30T23:52:13.255Z,101467.09
2019-03-30T23:54:45.125Z,101472.50
2019-03-30T23:57:16.945Z,101469.45
2019-03-30T23:59:48.769Z,101463.44
